KPLU

Pierce County - Thun Field Airport

Puyallup, Washington, USA
METAR KPLU 181935Z AUTO 18005KT 10SM CLR 11/04 A3011 RMK AO2
Observed Flight Rules
Jan-18 @ 19:35 UTC (32 minutes ago) Visual Flight Rules
Wind Visibility Clouds
180° at 5 knots 10 miles
  • Clear skies
Temperatures Readings
Current 11°C / 52°F
Dewpoint 4°C / 39°F
Humidity 62%
Altimeter 30.11" Hg
Pressure 1019.62 hPa
Elevation 164
METAR KPLU 181935Z AUTO 18005KT 10SM CLR 11/04 A3011 RMK AO2
Observed Flight Rules
Jan-18 @ 19:35 UTC
(32 minutes ago)
VFR
Wind Visibility
180° at 5 knots 10 miles
Clouds
  • Clear skies
Temperature Dewpoint
11°C / 52°F 4°C / 39°F
Humidity Altimeter Pressure
62% 30.11" Hg 1019.62 hPa